Impacts METAR Board
IDs:

KCLT - Charlotte/Douglas In, NC, US

Updated at: 1700 UTC 22 May 2018
Potential Impact None Slight Moderate High
Time 22/05Z 22/06Z 22/07Z 22/08Z 22/09Z 22/10Z 22/11Z 22/12Z 22/13Z 22/14Z 22/15Z 22/16Z 22/17Z
Temp71 70 68 68 67 67 68 71 72 76 77 81 83
Dewpt69 68 68 68 67 66 67 70 71 71 70 68 66
Altim30.15 30.13 30.12 30.12 30.13 30.13 30.15 30.16 30.17 30.17 30.16 30.16 30.14
VIS10 10 10 10 9 9 9 8 7 10 10 10 10
CIG42 -- 140 -- -- 46 -- 9 6 10 14 47 160
CoverBKNSCTBKNSCTFEWBKNSCTBKNBKNBKNBKNBKNBKN
FltCatVFRVFRVFRVFRVFRVFRVFRIFRIFRMVFRMVFRVFRVFR
WX--------------------------
WDir17020001602000180200200240270190210
WSpd3 5 0 3 3 0 4 5 8 5 5 7 6
WGst-- -- -- -- -- -- -- -- -- -- -- -- --
Raw hourly METARs
KCLT 220452Z 17003KT 10SM BKN042 BKN120 22/21 A3015 RMK AO2 RAE04 SLP201 P0001 T02170206 403000189
KCLT 220552Z 20005KT 10SM FEW035 SCT110 21/20 A3013 RMK AO2 SLP194 60006 T02110200 10250 20211 58010
KCLT 220652Z 00000KT 10SM BKN140 20/20 A3012 RMK AO2 SLP191 T02000200
KCLT 220752Z 16003KT 10SM SCT150 20/20 A3012 RMK AO2 SLP191 T02000200
KCLT 220852Z 20003KT 9SM FEW220 19/19 A3013 RMK AO2 SLP194 T01940194 55001
KCLT 220952Z 00000KT 9SM BKN046 BKN220 19/19 A3013 RMK AO2 SLP196 T01940189
KCLT 221052Z 18004KT 9SM FEW045 SCT220 20/19 A3015 RMK AO2 SLP200 T02000194
KCLT 221152Z 20005KT 8SM BKN009 BKN025 22/21 A3016 RMK AO2 SLP204 70006 T02170211 10217 20189 53010
KCLT 221252Z 20008KT 7SM BKN006 BKN022 22/22 A3017 RMK AO2 SLP207 T02220217
KCLT 221352Z 24005KT 10SM BKN010 BKN160 BKN250 24/22 A3017 RMK AO2 SLP207 T02440217
KCLT 221452Z 27005KT 10SM BKN014 BKN250 25/21 A3016 RMK AO2 SLP205 T02500211 50001
KCLT 221552Z 19007KT 160V240 10SM SCT018 BKN047 BKN250 27/20 A3016 RMK AO2 SLP205 T02720200
KCLT 221652Z 21006KT 10SM SCT028 BKN160 BKN250 28/19 A3014 RMK AO2 SLP197 T02830189



Page loaded:  17:50 UTC  |   10:50 AM Pacific  |   11:50 AM Mountain  |   12:50 PM Central  |   01:50 PM Eastern

 

ADVISORIES

FORECASTS

FORECASTS

OBSERVATIONS

USER TOOLS

ABOUT US